sensor_id;sensor_type;location;lat;lon;timestamp;P1;durP1;ratioP1;P2;durP2;ratioP2
20344;SDS011;10330;48.816;9.278;2024-03-02T00:02:06;19.15;;;9.07;;
20344;SDS011;10330;48.816;9.278;2024-03-02T00:04:32;19.83;;;9.82;;
20344;SDS011;10330;48.816;9.278;2024-03-02T00:06:59;14.10;;;8.07;;
20344;SDS011;10330;48.816;9.278;2024-03-02T00:09:25;17.75;;;9.48;;
20344;SDS011;10330;48.816;9.278;2024-03-02T00:11:52;17.02;;;8.90;;
20344;SDS011;10330;48.816;9.278;2024-03-02T00:14:18;33.17;;;14.32;;
20344;SDS011;10330;48.816;9.278;2024-03-02T00:16:45;22.60;;;11.05;;
20344;SDS011;10330;48.816;9.278;2024-03-02T00:19:11;11.73;;;8.10;;
20344;SDS011;10330;48.816;9.278;2024-03-02T00:21:38;14.68;;;9.00;;
20344;SDS011;10330;48.816;9.278;2024-03-02T00:24:07;18.02;;;9.48;;
20344;SDS011;10330;48.816;9.278;2024-03-02T00:26:59;17.73;;;9.77;;
20344;SDS011;10330;48.816;9.278;2024-03-02T00:29:26;21.48;;;10.02;;
20344;SDS011;10330;48.816;9.278;2024-03-02T00:31:55;19.45;;;10.27;;
20344;SDS011;10330;48.816;9.278;2024-03-02T00:34:21;13.98;;;8.70;;
20344;SDS011;10330;48.816;9.278;2024-03-02T00:36:48;17.63;;;9.02;;
20344;SDS011;10330;48.816;9.278;2024-03-02T00:39:17;15.85;;;9.55;;
20344;SDS011;10330;48.816;9.278;2024-03-02T00:41:44;16.60;;;9.00;;
20344;SDS011;10330;48.816;9.278;2024-03-02T00:44:13;16.38;;;9.20;;
20344;SDS011;10330;48.816;9.278;2024-03-02T00:46:41;16.90;;;8.98;;
20344;SDS011;10330;48.816;9.278;2024-03-02T00:49:21;13.82;;;8.50;;
20344;SDS011;10330;48.816;9.278;2024-03-02T00:51:50;19.25;;;8.95;;
20344;SDS011;10330;48.816;9.278;2024-03-02T00:54:21;14.93;;;8.60;;
20344;SDS011;10330;48.816;9.278;2024-03-02T00:56:50;15.25;;;9.50;;
20344;SDS011;10330;48.816;9.278;2024-03-02T00:59:17;20.05;;;9.73;;
20344;SDS011;10330;48.816;9.278;2024-03-02T01:01:43;16.65;;;9.35;;
20344;SDS011;10330;48.816;9.278;2024-03-02T01:04:10;16.13;;;9.68;;
20344;SDS011;10330;48.816;9.278;2024-03-02T01:06:42;17.38;;;9.73;;
20344;SDS011;10330;48.816;9.278;2024-03-02T01:09:12;14.80;;;9.15;;
20344;SDS011;10330;48.816;9.278;2024-03-02T01:11:38;17.73;;;10.07;;
20344;SDS011;10330;48.816;9.278;2024-03-02T01:14:07;18.30;;;10.02;;
20344;SDS011;10330;48.816;9.278;2024-03-02T01:16:34;17.27;;;9.90;;
20344;SDS011;10330;48.816;9.278;2024-03-02T01:19:00;21.67;;;10.20;;
20344;SDS011;10330;48.816;9.278;2024-03-02T01:21:26;17.27;;;9.50;;
20344;SDS011;10330;48.816;9.278;2024-03-02T01:23:53;20.42;;;10.88;;
20344;SDS011;10330;48.816;9.278;2024-03-02T01:26:22;17.92;;;9.82;;
20344;SDS011;10330;48.816;9.278;2024-03-02T01:28:48;18.90;;;10.55;;
20344;SDS011;10330;48.816;9.278;2024-03-02T01:31:14;14.40;;;9.48;;
20344;SDS011;10330;48.816;9.278;2024-03-02T01:33:40;17.65;;;8.80;;
20344;SDS011;10330;48.816;9.278;2024-03-02T01:36:07;18.67;;;9.60;;
20344;SDS011;10330;48.816;9.278;2024-03-02T01:38:34;16.15;;;9.20;;
20344;SDS011;10330;48.816;9.278;2024-03-02T01:41:00;19.40;;;8.77;;
20344;SDS011;10330;48.816;9.278;2024-03-02T01:43:28;19.75;;;10.10;;
20344;SDS011;10330;48.816;9.278;2024-03-02T01:45:54;17.17;;;9.52;;
20344;SDS011;10330;48.816;9.278;2024-03-02T01:48:22;21.38;;;9.90;;
20344;SDS011;10330;48.816;9.278;2024-03-02T01:50:48;19.90;;;10.55;;
20344;SDS011;10330;48.816;9.278;2024-03-02T01:53:15;17.23;;;10.27;;
20344;SDS011;10330;48.816;9.278;2024-03-02T01:55:42;18.50;;;9.68;;
20344;SDS011;10330;48.816;9.278;2024-03-02T01:58:08;17.50;;;9.98;;
20344;SDS011;10330;48.816;9.278;2024-03-02T02:00:35;18.77;;;10.23;;
20344;SDS011;10330;48.816;9.278;2024-03-02T02:03:01;22.23;;;10.63;;
20344;SDS011;10330;48.816;9.278;2024-03-02T02:05:28;20.90;;;10.02;;
20344;SDS011;10330;48.816;9.278;2024-03-02T02:07:54;17.25;;;10.43;;
20344;SDS011;10330;48.816;9.278;2024-03-02T02:10:21;19.95;;;10.02;;
20344;SDS011;10330;48.816;9.278;2024-03-02T02:12:50;24.50;;;9.80;;
20344;SDS011;10330;48.816;9.278;2024-03-02T02:15:27;21.52;;;9.98;;
20344;SDS011;10330;48.816;9.278;2024-03-02T02:17:54;17.38;;;9.55;;
20344;SDS011;10330;48.816;9.278;2024-03-02T02:20:22;20.83;;;10.13;;
20344;SDS011;10330;48.816;9.278;2024-03-02T02:22:56;15.65;;;9.90;;
20344;SDS011;10330;48.816;9.278;2024-03-02T02:25:23;17.27;;;10.52;;
20344;SDS011;10330;48.816;9.278;2024-03-02T02:27:50;16.02;;;9.73;;
20344;SDS011;10330;48.816;9.278;2024-03-02T02:30:20;17.88;;;10.25;;
20344;SDS011;10330;48.816;9.278;2024-03-02T02:32:50;20.65;;;10.52;;
20344;SDS011;10330;48.816;9.278;2024-03-02T02:35:17;17.55;;;9.60;;
20344;SDS011;10330;48.816;9.278;2024-03-02T02:37:44;19.65;;;10.27;;
20344;SDS011;10330;48.816;9.278;2024-03-02T02:40:12;17.30;;;9.95;;
20344;SDS011;10330;48.816;9.278;2024-03-02T02:42:39;18.08;;;9.80;;
20344;SDS011;10330;48.816;9.278;2024-03-02T02:45:05;20.05;;;10.48;;
20344;SDS011;10330;48.816;9.278;2024-03-02T02:47:32;21.25;;;10.18;;
20344;SDS011;10330;48.816;9.278;2024-03-02T02:50:02;19.65;;;10.43;;
20344;SDS011;10330;48.816;9.278;2024-03-02T02:52:33;18.20;;;11.05;;
20344;SDS011;10330;48.816;9.278;2024-03-02T02:55:05;26.20;;;10.88;;
20344;SDS011;10330;48.816;9.278;2024-03-02T02:57:35;17.48;;;10.35;;
20344;SDS011;10330;48.816;9.278;2024-03-02T03:00:09;18.88;;;9.65;;
20344;SDS011;10330;48.816;9.278;2024-03-02T03:02:43;19.30;;;10.10;;
20344;SDS011;10330;48.816;9.278;2024-03-02T03:05:14;21.70;;;11.23;;
20344;SDS011;10330;48.816;9.278;2024-03-02T03:07:41;24.17;;;11.77;;
20344;SDS011;10330;48.816;9.278;2024-03-02T03:10:09;24.10;;;12.27;;
20344;SDS011;10330;48.816;9.278;2024-03-02T03:12:36;23.15;;;11.57;;
20344;SDS011;10330;48.816;9.278;2024-03-02T03:15:03;17.48;;;10.65;;
20344;SDS011;10330;48.816;9.278;2024-03-02T03:17:34;25.55;;;11.35;;
20344;SDS011;10330;48.816;9.278;2024-03-02T03:20:01;21.73;;;11.18;;
20344;SDS011;10330;48.816;9.278;2024-03-02T03:22:30;27.40;;;12.60;;
20344;SDS011;10330;48.816;9.278;2024-03-02T03:24:57;27.88;;;12.63;;
20344;SDS011;10330;48.816;9.278;2024-03-02T03:27:23;20.05;;;11.77;;
20344;SDS011;10330;48.816;9.278;2024-03-02T03:29:50;26.38;;;12.00;;
20344;SDS011;10330;48.816;9.278;2024-03-02T03:32:16;22.02;;;11.52;;
20344;SDS011;10330;48.816;9.278;2024-03-02T03:34:42;25.98;;;12.02;;
20344;SDS011;10330;48.816;9.278;2024-03-02T03:37:09;19.55;;;10.82;;
20344;SDS011;10330;48.816;9.278;2024-03-02T03:39:35;24.40;;;11.65;;
20344;SDS011;10330;48.816;9.278;2024-03-02T03:42:01;21.27;;;10.18;;
20344;SDS011;10330;48.816;9.278;2024-03-02T03:44:28;19.40;;;10.85;;
20344;SDS011;10330;48.816;9.278;2024-03-02T03:46:54;17.35;;;10.35;;
20344;SDS011;10330;48.816;9.278;2024-03-02T03:49:21;20.45;;;9.93;;
20344;SDS011;10330;48.816;9.278;2024-03-02T03:51:47;16.30;;;9.75;;
20344;SDS011;10330;48.816;9.278;2024-03-02T03:54:13;27.70;;;11.50;;
20344;SDS011;10330;48.816;9.278;2024-03-02T03:56:40;18.38;;;10.77;;
20344;SDS011;10330;48.816;9.278;2024-03-02T03:59:06;19.63;;;10.13;;
20344;SDS011;10330;48.816;9.278;2024-03-02T04:01:32;17.33;;;10.30;;
20344;SDS011;10330;48.816;9.278;2024-03-02T04:03:59;16.88;;;10.07;;
20344;SDS011;10330;48.816;9.278;2024-03-02T04:06:27;21.27;;;10.63;;
20344;SDS011;10330;48.816;9.278;2024-03-02T04:08:53;17.50;;;10.48;;
20344;SDS011;10330;48.816;9.278;2024-03-02T04:11:20;18.17;;;10.98;;
20344;SDS011;10330;48.816;9.278;2024-03-02T04:13:49;21.20;;;9.82;;
20344;SDS011;10330;48.816;9.278;2024-03-02T04:16:15;17.05;;;9.15;;
20344;SDS011;10330;48.816;9.278;2024-03-02T04:18:44;19.38;;;10.50;;
20344;SDS011;10330;48.816;9.278;2024-03-02T04:21:11;15.18;;;9.60;;
20344;SDS011;10330;48.816;9.278;2024-03-02T04:23:37;16.92;;;10.35;;
20344;SDS011;10330;48.816;9.278;2024-03-02T04:26:03;20.45;;;10.77;;
20344;SDS011;10330;48.816;9.278;2024-03-02T04:28:30;21.58;;;10.25;;
20344;SDS011;10330;48.816;9.278;2024-03-02T04:30:56;17.83;;;9.82;;
20344;SDS011;10330;48.816;9.278;2024-03-02T04:33:22;19.75;;;10.45;;
20344;SDS011;10330;48.816;9.278;2024-03-02T04:35:49;27.98;;;11.38;;
20344;SDS011;10330;48.816;9.278;2024-03-02T04:38:15;21.60;;;10.75;;
20344;SDS011;10330;48.816;9.278;2024-03-02T04:40:41;23.73;;;10.27;;
20344;SDS011;10330;48.816;9.278;2024-03-02T04:43:08;19.75;;;10.57;;
20344;SDS011;10330;48.816;9.278;2024-03-02T04:45:37;20.00;;;10.75;;
20344;SDS011;10330;48.816;9.278;2024-03-02T04:48:04;21.90;;;11.40;;
20344;SDS011;10330;48.816;9.278;2024-03-02T04:50:30;20.40;;;11.13;;
20344;SDS011;10330;48.816;9.278;2024-03-02T04:52:57;23.67;;;10.70;;
20344;SDS011;10330;48.816;9.278;2024-03-02T04:55:23;21.77;;;11.55;;
20344;SDS011;10330;48.816;9.278;2024-03-02T04:58:04;24.10;;;10.73;;
20344;SDS011;10330;48.816;9.278;2024-03-02T05:00:32;21.38;;;11.27;;
20344;SDS011;10330;48.816;9.278;2024-03-02T05:02:59;19.50;;;10.98;;
20344;SDS011;10330;48.816;9.278;2024-03-02T05:05:25;19.75;;;10.57;;
20344;SDS011;10330;48.816;9.278;2024-03-02T05:07:52;25.63;;;11.60;;
20344;SDS011;10330;48.816;9.278;2024-03-02T05:10:18;19.85;;;11.02;;
20344;SDS011;10330;48.816;9.278;2024-03-02T05:12:45;22.65;;;11.18;;
20344;SDS011;10330;48.816;9.278;2024-03-02T05:15:12;17.65;;;10.75;;
20344;SDS011;10330;48.816;9.278;2024-03-02T05:17:39;22.20;;;10.68;;
20344;SDS011;10330;48.816;9.278;2024-03-02T05:20:08;22.63;;;11.15;;
20344;SDS011;10330;48.816;9.278;2024-03-02T05:22:38;22.88;;;11.07;;
20344;SDS011;10330;48.816;9.278;2024-03-02T05:25:08;26.48;;;11.45;;
20344;SDS011;10330;48.816;9.278;2024-03-02T05:28:00;22.08;;;10.85;;
20344;SDS011;10330;48.816;9.278;2024-03-02T05:38:53;25.73;;;12.45;;
20344;SDS011;10330;48.816;9.278;2024-03-02T05:41:36;34.20;;;14.48;;
20344;SDS011;10330;48.816;9.278;2024-03-02T05:47:51;24.20;;;12.32;;
20344;SDS011;10330;48.816;9.278;2024-03-02T05:50:20;23.63;;;12.50;;
20344;SDS011;10330;48.816;9.278;2024-03-02T05:52:47;26.15;;;12.52;;
20344;SDS011;10330;48.816;9.278;2024-03-02T05:55:13;25.52;;;11.98;;
20344;SDS011;10330;48.816;9.278;2024-03-02T05:57:40;27.55;;;13.32;;
20344;SDS011;10330;48.816;9.278;2024-03-02T06:00:06;25.67;;;13.82;;
20344;SDS011;10330;48.816;9.278;2024-03-02T06:02:41;28.70;;;14.63;;
20344;SDS011;10330;48.816;9.278;2024-03-02T06:05:07;29.35;;;14.75;;
20344;SDS011;10330;48.816;9.278;2024-03-02T06:07:34;24.90;;;13.50;;
20344;SDS011;10330;48.816;9.278;2024-03-02T06:10:01;27.17;;;13.73;;
20344;SDS011;10330;48.816;9.278;2024-03-02T06:12:27;27.45;;;13.48;;
20344;SDS011;10330;48.816;9.278;2024-03-02T06:14:53;25.17;;;12.75;;
20344;SDS011;10330;48.816;9.278;2024-03-02T06:17:26;26.42;;;13.63;;
20344;SDS011;10330;48.816;9.278;2024-03-02T06:19:53;27.98;;;13.13;;
20344;SDS011;10330;48.816;9.278;2024-03-02T06:22:19;26.63;;;13.85;;
20344;SDS011;10330;48.816;9.278;2024-03-02T06:24:45;26.58;;;13.15;;
20344;SDS011;10330;48.816;9.278;2024-03-02T06:27:11;25.38;;;12.75;;
20344;SDS011;10330;48.816;9.278;2024-03-02T06:29:38;26.50;;;13.55;;
20344;SDS011;10330;48.816;9.278;2024-03-02T06:32:04;29.17;;;13.88;;
20344;SDS011;10330;48.816;9.278;2024-03-02T06:34:31;31.30;;;15.95;;
20344;SDS011;10330;48.816;9.278;2024-03-02T06:36:59;27.02;;;14.13;;
20344;SDS011;10330;48.816;9.278;2024-03-02T06:39:25;31.17;;;14.82;;
20344;SDS011;10330;48.816;9.278;2024-03-02T06:41:52;30.15;;;14.45;;
20344;SDS011;10330;48.816;9.278;2024-03-02T06:44:18;32.92;;;14.95;;
20344;SDS011;10330;48.816;9.278;2024-03-02T06:46:45;32.63;;;14.32;;
20344;SDS011;10330;48.816;9.278;2024-03-02T06:49:11;33.13;;;15.38;;
20344;SDS011;10330;48.816;9.278;2024-03-02T06:51:37;31.48;;;15.15;;
20344;SDS011;10330;48.816;9.278;2024-03-02T06:54:03;29.80;;;14.13;;
20344;SDS011;10330;48.816;9.278;2024-03-02T06:56:30;33.42;;;13.70;;
20344;SDS011;10330;48.816;9.278;2024-03-02T06:58:58;29.38;;;14.93;;
20344;SDS011;10330;48.816;9.278;2024-03-02T07:01:24;24.48;;;13.25;;
20344;SDS011;10330;48.816;9.278;2024-03-02T07:03:51;32.25;;;15.00;;
20344;SDS011;10330;48.816;9.278;2024-03-02T07:06:18;21.48;;;12.50;;
20344;SDS011;10330;48.816;9.278;2024-03-02T07:08:44;29.70;;;13.90;;
20344;SDS011;10330;48.816;9.278;2024-03-02T07:11:11;25.92;;;12.57;;
20344;SDS011;10330;48.816;9.278;2024-03-02T07:13:39;20.90;;;11.30;;
20344;SDS011;10330;48.816;9.278;2024-03-02T07:16:06;22.65;;;11.20;;
20344;SDS011;10330;48.816;9.278;2024-03-02T07:18:52;21.20;;;11.57;;
20344;SDS011;10330;48.816;9.278;2024-03-02T07:21:20;22.70;;;11.50;;
20344;SDS011;10330;48.816;9.278;2024-03-02T07:23:48;24.67;;;11.63;;
20344;SDS011;10330;48.816;9.278;2024-03-02T07:26:14;21.67;;;11.55;;
20344;SDS011;10330;48.816;9.278;2024-03-02T07:28:41;18.55;;;10.18;;
20344;SDS011;10330;48.816;9.278;2024-03-02T07:31:07;25.52;;;12.77;;
20344;SDS011;10330;48.816;9.278;2024-03-02T07:33:38;25.42;;;11.30;;
20344;SDS011;10330;48.816;9.278;2024-03-02T07:36:05;19.73;;;10.82;;
20344;SDS011;10330;48.816;9.278;2024-03-02T07:38:31;17.92;;;9.82;;
20344;SDS011;10330;48.816;9.278;2024-03-02T07:40:59;23.63;;;10.95;;
20344;SDS011;10330;48.816;9.278;2024-03-02T07:43:26;21.35;;;10.18;;
20344;SDS011;10330;48.816;9.278;2024-03-02T07:45:52;14.00;;;9.05;;
20344;SDS011;10330;48.816;9.278;2024-03-02T07:48:19;16.50;;;9.57;;
20344;SDS011;10330;48.816;9.278;2024-03-02T07:50:45;18.00;;;9.43;;
20344;SDS011;10330;48.816;9.278;2024-03-02T07:53:11;16.63;;;9.00;;
20344;SDS011;10330;48.816;9.278;2024-03-02T07:55:38;15.93;;;9.48;;
20344;SDS011;10330;48.816;9.278;2024-03-02T07:58:07;16.50;;;9.95;;
20344;SDS011;10330;48.816;9.278;2024-03-02T08:00:34;18.30;;;9.82;;
20344;SDS011;10330;48.816;9.278;2024-03-02T08:03:01;23.13;;;11.80;;
20344;SDS011;10330;48.816;9.278;2024-03-02T08:05:28;24.02;;;13.43;;
20344;SDS011;10330;48.816;9.278;2024-03-02T08:07:54;24.15;;;9.90;;
20344;SDS011;10330;48.816;9.278;2024-03-02T08:10:21;21.98;;;9.80;;
20344;SDS011;10330;48.816;9.278;2024-03-02T08:12:47;13.27;;;8.05;;
20344;SDS011;10330;48.816;9.278;2024-03-02T08:15:13;15.25;;;8.65;;
20344;SDS011;10330;48.816;9.278;2024-03-02T08:17:40;15.02;;;8.75;;
20344;SDS011;10330;48.816;9.278;2024-03-02T08:20:13;13.65;;;8.07;;
20344;SDS011;10330;48.816;9.278;2024-03-02T08:22:40;15.93;;;8.20;;
20344;SDS011;10330;48.816;9.278;2024-03-02T08:25:07;12.57;;;7.22;;
20344;SDS011;10330;48.816;9.278;2024-03-02T08:27:34;9.90;;;6.35;;
20344;SDS011;10330;48.816;9.278;2024-03-02T08:30:00;15.10;;;6.82;;
20344;SDS011;10330;48.816;9.278;2024-03-02T08:32:26;11.27;;;6.63;;
20344;SDS011;10330;48.816;9.278;2024-03-02T08:34:52;11.20;;;6.03;;
20344;SDS011;10330;48.816;9.278;2024-03-02T08:37:19;10.75;;;5.25;;
20344;SDS011;10330;48.816;9.278;2024-03-02T08:39:45;8.00;;;5.90;;
20344;SDS011;10330;48.816;9.278;2024-03-02T08:42:11;9.98;;;5.53;;
20344;SDS011;10330;48.816;9.278;2024-03-02T08:44:38;10.57;;;5.70;;
20344;SDS011;10330;48.816;9.278;2024-03-02T08:47:04;9.10;;;6.38;;
20344;SDS011;10330;48.816;9.278;2024-03-02T08:49:30;9.57;;;6.18;;
20344;SDS011;10330;48.816;9.278;2024-03-02T08:51:57;10.63;;;6.85;;
20344;SDS011;10330;48.816;9.278;2024-03-02T08:54:23;12.73;;;6.53;;
20344;SDS011;10330;48.816;9.278;2024-03-02T08:56:49;12.05;;;6.93;;
20344;SDS011;10330;48.816;9.278;2024-03-02T08:59:16;13.57;;;7.00;;
20344;SDS011;10330;48.816;9.278;2024-03-02T09:01:43;12.23;;;6.65;;
20344;SDS011;10330;48.816;9.278;2024-03-02T09:04:09;13.98;;;6.63;;
20344;SDS011;10330;48.816;9.278;2024-03-02T09:06:35;11.23;;;6.25;;
20344;SDS011;10330;48.816;9.278;2024-03-02T09:09:02;9.77;;;6.22;;
20344;SDS011;10330;48.816;9.278;2024-03-02T09:11:28;13.40;;;7.75;;
20344;SDS011;10330;48.816;9.278;2024-03-02T09:13:54;18.05;;;8.45;;
20344;SDS011;10330;48.816;9.278;2024-03-02T09:16:22;8.68;;;5.95;;
20344;SDS011;10330;48.816;9.278;2024-03-02T09:18:48;9.07;;;5.93;;
20344;SDS011;10330;48.816;9.278;2024-03-02T09:21:20;6.15;;;4.47;;
20344;SDS011;10330;48.816;9.278;2024-03-02T09:23:46;5.38;;;4.40;;
20344;SDS011;10330;48.816;9.278;2024-03-02T09:26:14;6.38;;;4.78;;
20344;SDS011;10330;48.816;9.278;2024-03-02T09:28:44;5.88;;;4.10;;
20344;SDS011;10330;48.816;9.278;2024-03-02T09:31:11;6.47;;;4.30;;
20344;SDS011;10330;48.816;9.278;2024-03-02T09:33:41;8.40;;;4.03;;
20344;SDS011;10330;48.816;9.278;2024-03-02T09:36:17;15.07;;;9.30;;
20344;SDS011;10330;48.816;9.278;2024-03-02T09:38:44;6.65;;;4.75;;
20344;SDS011;10330;48.816;9.278;2024-03-02T09:41:11;5.03;;;3.80;;
20344;SDS011;10330;48.816;9.278;2024-03-02T09:43:38;4.78;;;3.80;;
20344;SDS011;10330;48.816;9.278;2024-03-02T09:46:05;3.47;;;3.17;;
20344;SDS011;10330;48.816;9.278;2024-03-02T09:48:32;2.67;;;2.47;;
20344;SDS011;10330;48.816;9.278;2024-03-02T09:51:01;3.40;;;3.10;;
20344;SDS011;10330;48.816;9.278;2024-03-02T09:53:30;3.00;;;2.70;;
20344;SDS011;10330;48.816;9.278;2024-03-02T09:56:01;2.53;;;2.10;;
20344;SDS011;10330;48.816;9.278;2024-03-02T09:58:28;2.72;;;2.50;;
20344;SDS011;10330;48.816;9.278;2024-03-02T10:00:55;3.05;;;2.75;;
20344;SDS011;10330;48.816;9.278;2024-03-02T10:03:22;2.83;;;2.63;;
20344;SDS011;10330;48.816;9.278;2024-03-02T10:05:52;3.58;;;2.58;;
20344;SDS011;10330;48.816;9.278;2024-03-02T10:08:26;2.90;;;2.67;;
20344;SDS011;10330;48.816;9.278;2024-03-02T10:10:52;1.90;;;1.80;;
20344;SDS011;10330;48.816;9.278;2024-03-02T10:13:19;4.25;;;2.25;;
20344;SDS011;10330;48.816;9.278;2024-03-02T10:15:50;3.00;;;2.63;;
20344;SDS011;10330;48.816;9.278;2024-03-02T10:18:18;4.00;;;2.58;;
20344;SDS011;10330;48.816;9.278;2024-03-02T10:20:54;5.72;;;3.58;;
20344;SDS011;10330;48.816;9.278;2024-03-02T10:23:20;4.00;;;3.33;;
20344;SDS011;10330;48.816;9.278;2024-03-02T10:25:47;3.67;;;2.53;;
20344;SDS011;10330;48.816;9.278;2024-03-02T10:28:13;2.30;;;2.10;;
20344;SDS011;10330;48.816;9.278;2024-03-02T10:30:41;2.80;;;2.33;;
20344;SDS011;10330;48.816;9.278;2024-03-02T10:33:08;2.72;;;1.90;;
20344;SDS011;10330;48.816;9.278;2024-03-02T10:35:35;2.33;;;2.10;;
20344;SDS011;10330;48.816;9.278;2024-03-02T10:38:06;2.17;;;1.98;;
20344;SDS011;10330;48.816;9.278;2024-03-02T10:40:36;1.98;;;1.75;;
20344;SDS011;10330;48.816;9.278;2024-03-02T10:43:02;2.35;;;2.17;;
20344;SDS011;10330;48.816;9.278;2024-03-02T10:45:33;2.15;;;1.92;;
20344;SDS011;10330;48.816;9.278;2024-03-02T10:48:01;2.03;;;1.80;;
20344;SDS011;10330;48.816;9.278;2024-03-02T10:50:28;2.33;;;2.10;;
20344;SDS011;10330;48.816;9.278;2024-03-02T10:52:55;2.30;;;2.03;;
20344;SDS011;10330;48.816;9.278;2024-03-02T10:55:21;5.55;;;1.88;;
20344;SDS011;10330;48.816;9.278;2024-03-02T10:57:50;1.67;;;1.58;;
20344;SDS011;10330;48.816;9.278;2024-03-02T11:00:19;1.70;;;1.60;;
20344;SDS011;10330;48.816;9.278;2024-03-02T11:02:56;13.98;;;1.35;;
20344;SDS011;10330;48.816;9.278;2024-03-02T11:05:27;1.73;;;1.52;;
20344;SDS011;10330;48.816;9.278;2024-03-02T11:08:02;2.70;;;1.90;;
20344;SDS011;10330;48.816;9.278;2024-03-02T11:10:45;1.90;;;1.80;;
20344;SDS011;10330;48.816;9.278;2024-03-02T11:13:17;1.90;;;1.50;;
20344;SDS011;10330;48.816;9.278;2024-03-02T11:15:50;2.40;;;1.75;;
20344;SDS011;10330;48.816;9.278;2024-03-02T11:18:20;5.40;;;3.03;;
20344;SDS011;10330;48.816;9.278;2024-03-02T11:20:50;1.98;;;1.88;;
20344;SDS011;10330;48.816;9.278;2024-03-02T11:23:17;2.38;;;1.67;;
20344;SDS011;10330;48.816;9.278;2024-03-02T11:25:44;22.38;;;11.27;;
20344;SDS011;10330;48.816;9.278;2024-03-02T11:28:10;6.60;;;4.13;;
20344;SDS011;10330;48.816;9.278;2024-03-02T11:33:04;1.55;;;1.45;;
20344;SDS011;10330;48.816;9.278;2024-03-02T11:35:42;5.07;;;2.38;;
20344;SDS011;10330;48.816;9.278;2024-03-02T11:38:51;2.33;;;2.10;;
20344;SDS011;10330;48.816;9.278;2024-03-02T11:41:19;8.77;;;2.88;;
20344;SDS011;10330;48.816;9.278;2024-03-02T11:43:45;3.10;;;2.35;;
20344;SDS011;10330;48.816;9.278;2024-03-02T11:46:15;4.63;;;3.15;;
20344;SDS011;10330;48.816;9.278;2024-03-02T11:48:49;1.85;;;1.50;;
20344;SDS011;10330;48.816;9.278;2024-03-02T11:51:16;2.92;;;1.25;;
20344;SDS011;10330;48.816;9.278;2024-03-02T11:53:42;2.17;;;1.70;;
20344;SDS011;10330;48.816;9.278;2024-03-02T11:56:10;1.67;;;1.58;;
20344;SDS011;10330;48.816;9.278;2024-03-02T11:58:39;2.30;;;1.67;;
20344;SDS011;10330;48.816;9.278;2024-03-02T12:01:07;3.17;;;1.42;;
20344;SDS011;10330;48.816;9.278;2024-03-02T12:03:36;1.30;;;1.30;;
20344;SDS011;10330;48.816;9.278;2024-03-02T12:06:04;0.98;;;0.98;;
20344;SDS011;10330;48.816;9.278;2024-03-02T12:08:33;1.02;;;1.02;;
20344;SDS011;10330;48.816;9.278;2024-03-02T12:11:02;1.00;;;1.00;;
20344;SDS011;10330;48.816;9.278;2024-03-02T12:13:28;1.10;;;1.10;;
20344;SDS011;10330;48.816;9.278;2024-03-02T12:15:55;0.82;;;0.75;;
20344;SDS011;10330;48.816;9.278;2024-03-02T12:18:24;0.73;;;0.73;;
20344;SDS011;10330;48.816;9.278;2024-03-02T12:20:51;0.95;;;0.95;;
20344;SDS011;10330;48.816;9.278;2024-03-02T12:23:18;1.60;;;1.20;;
20344;SDS011;10330;48.816;9.278;2024-03-02T12:25:45;0.80;;;0.80;;
20344;SDS011;10330;48.816;9.278;2024-03-02T12:28:12;2.17;;;0.85;;
20344;SDS011;10330;48.816;9.278;2024-03-02T12:30:38;0.80;;;0.80;;
20344;SDS011;10330;48.816;9.278;2024-03-02T12:33:05;0.70;;;0.70;;
20344;SDS011;10330;48.816;9.278;2024-03-02T12:35:31;1.08;;;0.80;;
20344;SDS011;10330;48.816;9.278;2024-03-02T12:37:57;0.60;;;0.60;;
20344;SDS011;10330;48.816;9.278;2024-03-02T12:40:24;0.90;;;0.90;;
20344;SDS011;10330;48.816;9.278;2024-03-02T12:42:51;0.70;;;0.70;;
20344;SDS011;10330;48.816;9.278;2024-03-02T12:45:17;0.45;;;0.45;;
20344;SDS011;10330;48.816;9.278;2024-03-02T12:47:53;0.80;;;0.80;;
20344;SDS011;10330;48.816;9.278;2024-03-02T12:50:20;0.50;;;0.50;;
20344;SDS011;10330;48.816;9.278;2024-03-02T12:52:53;3.03;;;0.77;;
20344;SDS011;10330;48.816;9.278;2024-03-02T12:55:32;1.05;;;1.00;;
20344;SDS011;10330;48.816;9.278;2024-03-02T12:57:59;1.25;;;0.70;;
20344;SDS011;10330;48.816;9.278;2024-03-02T13:00:28;1.83;;;0.80;;
20344;SDS011;10330;48.816;9.278;2024-03-02T13:02:58;1.08;;;0.93;;
20344;SDS011;10330;48.816;9.278;2024-03-02T13:05:29;0.60;;;0.60;;
20344;SDS011;10330;48.816;9.278;2024-03-02T13:07:58;0.80;;;0.80;;
20344;SDS011;10330;48.816;9.278;2024-03-02T13:10:29;0.63;;;0.63;;
20344;SDS011;10330;48.816;9.278;2024-03-02T13:12:56;0.50;;;0.50;;
20344;SDS011;10330;48.816;9.278;2024-03-02T13:15:23;0.60;;;0.60;;
20344;SDS011;10330;48.816;9.278;2024-03-02T13:17:51;0.50;;;0.50;;
20344;SDS011;10330;48.816;9.278;2024-03-02T13:20:17;0.85;;;0.50;;
20344;SDS011;10330;48.816;9.278;2024-03-02T13:22:44;0.77;;;0.77;;
20344;SDS011;10330;48.816;9.278;2024-03-02T13:25:10;1.40;;;0.55;;
20344;SDS011;10330;48.816;9.278;2024-03-02T13:27:37;1.08;;;0.93;;
20344;SDS011;10330;48.816;9.278;2024-03-02T13:30:03;0.70;;;0.70;;
20344;SDS011;10330;48.816;9.278;2024-03-02T13:32:31;1.05;;;1.00;;
20344;SDS011;10330;48.816;9.278;2024-03-02T13:34:58;2.22;;;1.92;;
20344;SDS011;10330;48.816;9.278;2024-03-02T13:37:24;3.60;;;0.90;;
20344;SDS011;10330;48.816;9.278;2024-03-02T13:39:51;1.67;;;1.30;;
20344;SDS011;10330;48.816;9.278;2024-03-02T13:42:17;1.25;;;1.15;;
20344;SDS011;10330;48.816;9.278;2024-03-02T13:44:43;1.98;;;1.00;;
20344;SDS011;10330;48.816;9.278;2024-03-02T13:47:15;1.30;;;1.20;;
20344;SDS011;10330;48.816;9.278;2024-03-02T13:49:41;0.98;;;0.95;;
20344;SDS011;10330;48.816;9.278;2024-03-02T13:52:12;6.13;;;3.85;;
20344;SDS011;10330;48.816;9.278;2024-03-02T13:54:43;20.02;;;10.07;;
20344;SDS011;10330;48.816;9.278;2024-03-02T13:57:13;4.28;;;2.53;;
20344;SDS011;10330;48.816;9.278;2024-03-02T13:59:40;7.00;;;3.75;;
20344;SDS011;10330;48.816;9.278;2024-03-02T14:02:08;4.63;;;2.50;;
20344;SDS011;10330;48.816;9.278;2024-03-02T14:04:34;1.17;;;1.10;;
20344;SDS011;10330;48.816;9.278;2024-03-02T14:07:01;2.08;;;1.65;;
20344;SDS011;10330;48.816;9.278;2024-03-02T14:09:28;0.93;;;0.93;;
20344;SDS011;10330;48.816;9.278;2024-03-02T14:11:54;9.45;;;5.15;;
20344;SDS011;10330;48.816;9.278;2024-03-02T14:14:21;15.38;;;7.28;;
20344;SDS011;10330;48.816;9.278;2024-03-02T14:16:48;10.20;;;5.50;;
20344;SDS011;10330;48.816;9.278;2024-03-02T14:19:14;4.82;;;3.03;;
20344;SDS011;10330;48.816;9.278;2024-03-02T14:21:41;4.15;;;1.20;;
20344;SDS011;10330;48.816;9.278;2024-03-02T14:24:07;10.20;;;5.10;;
20344;SDS011;10330;48.816;9.278;2024-03-02T14:26:34;4.85;;;3.47;;
20344;SDS011;10330;48.816;9.278;2024-03-02T14:29:00;1.70;;;1.60;;
20344;SDS011;10330;48.816;9.278;2024-03-02T14:31:27;1.30;;;1.20;;
20344;SDS011;10330;48.816;9.278;2024-03-02T14:33:54;1.25;;;1.17;;
20344;SDS011;10330;48.816;9.278;2024-03-02T14:36:20;2.58;;;1.98;;
20344;SDS011;10330;48.816;9.278;2024-03-02T14:38:46;1.88;;;1.35;;
20344;SDS011;10330;48.816;9.278;2024-03-02T14:41:14;1.17;;;1.08;;
20344;SDS011;10330;48.816;9.278;2024-03-02T14:43:40;0.73;;;0.60;;
20344;SDS011;10330;48.816;9.278;2024-03-02T14:46:06;1.40;;;1.20;;
20344;SDS011;10330;48.816;9.278;2024-03-02T14:48:38;5.60;;;3.35;;
20344;SDS011;10330;48.816;9.278;2024-03-02T14:51:04;2.13;;;1.50;;
20344;SDS011;10330;48.816;9.278;2024-03-02T14:53:31;9.63;;;4.97;;